Time;durP1;ratioP1;P1;durP2;ratioP2;P2;SDS_P1;SDS_P2;PMS_P1;PMS_P2;Temp;Humidity;BMP_temperature;BMP_pressure;BME280_temperature;BME280_humidity;BME280_pressure;Samples;Min_cycle;Max_cycle;Signal;HPM_P1;HPM_P2
2022/06/22 00:01:03;;;;;;;8.05;6.68;;;;;;;21.19;70.19;94274.56;5094252;28;20628;-77
2022/06/22 00:03:31;;;;;;;8.65;5.35;;;;;;;21.16;70.43;94269.84;5095078;28;20287;-78
2022/06/22 00:05:58;;;;;;;8.32;5.28;;;;;;;21.15;70.46;94267.50;5094710;28;20587;-78
2022/06/22 00:08:29;;;;;;;8.23;5.20;;;;;;;21.05;70.58;94263.63;5094675;28;20697;-78
2022/06/22 00:11:03;;;;;;;7.35;5.03;;;;;;;21.04;70.72;94262.06;5094870;28;20218;-78
2022/06/22 00:13:33;;;;;;;10.63;7.10;;;;;;;21.06;70.62;94276.19;5094424;28;20218;-78
2022/06/22 00:16:02;;;;;;;11.02;6.63;;;;;;;21.11;70.28;94273.03;5095046;28;20227;-77
2022/06/22 00:18:33;;;;;;;8.60;5.38;;;;;;;21.25;69.83;94272.97;5094615;28;20309;-75
2022/06/22 00:21:03;;;;;;;8.23;5.70;;;;;;;21.16;70.18;94280.88;5094516;28;20267;-77
2022/06/22 00:23:40;;;;;;;8.05;5.38;;;;;;;21.12;70.49;94274.59;5094446;28;20214;-77
2022/06/22 00:26:19;;;;;;;9.63;5.68;;;;;;;21.15;70.46;94279.31;5094495;28;20229;-77
2022/06/22 00:28:56;;;;;;;6.93;5.15;;;;;;;21.06;70.91;94273.44;5094239;28;20194;-78
2022/06/22 00:31:32;;;;;;;10.07;5.78;;;;;;;20.97;71.39;94273.13;5093496;28;20288;-76
2022/06/22 00:34:03;;;;;;;11.85;5.72;;;;;;;20.96;71.63;94277.06;5094341;28;20609;-76
2022/06/22 00:36:37;;;;;;;8.90;5.85;;;;;;;20.92;71.61;94276.28;5093863;28;20654;-76
2022/06/22 00:39:24;;;;;;;9.73;6.30;;;;;;;20.90;71.86;94275.94;5093759;28;20601;-77
2022/06/22 00:42:00;;;;;;;11.38;5.88;;;;;;;20.85;71.95;94273.56;5094379;28;20279;-77
2022/06/22 00:44:29;;;;;;;8.85;5.85;;;;;;;20.90;71.80;94278.69;5093612;28;20214;-77
2022/06/22 00:47:01;;;;;;;15.32;8.57;;;;;;;20.97;71.33;94278.63;5093966;28;20219;-77
2022/06/22 00:49:29;;;;;;;7.97;5.38;;;;;;;21.03;71.16;94271.53;5093755;28;20281;-76
2022/06/22 00:52:02;;;;;;;8.88;5.47;;;;;;;21.06;70.76;94270.69;5094073;28;20238;-78
2022/06/22 00:54:32;;;;;;;12.52;7.85;;;;;;;21.19;70.49;94274.56;5093951;28;20190;-76
2022/06/22 00:57:08;;;;;;;9.68;5.45;;;;;;;21.24;70.28;94279.66;5093811;28;20623;-76
2022/06/22 00:59:40;;;;;;;9.35;5.93;;;;;;;21.31;70.03;94278.06;5093552;28;20194;-77
2022/06/22 01:02:18;;;;;;;8.32;5.88;;;;;;;21.37;69.89;94285.47;5093334;28;20607;-76
2022/06/22 01:04:50;;;;;;;8.85;5.78;;;;;;;21.39;69.78;94271.28;5093665;28;20299;-75
2022/06/22 01:07:22;;;;;;;12.73;5.72;;;;;;;21.41;69.55;94266.16;5093703;28;20557;-75
2022/06/22 01:09:56;;;;;;;9.70;5.88;;;;;;;21.46;69.39;94265.72;5093150;28;20230;-76
2022/06/22 01:12:32;;;;;;;8.27;5.68;;;;;;;21.58;69.13;94268.78;5093700;28;20279;-77
2022/06/22 01:15:07;;;;;;;10.18;6.22;;;;;;;21.60;69.05;94258.13;5092928;28;20271;-78
2022/06/22 01:17:39;;;;;;;7.97;5.60;;;;;;;21.61;69.21;94258.91;5093537;28;20213;-78
2022/06/22 01:20:13;;;;;;;9.32;5.38;;;;;;;21.59;69.53;94258.56;5093612;28;20804;-76
2022/06/22 01:23:13;;;;;;;11.88;5.30;;;;;;;21.53;70.02;94262.91;5093542;28;20218;-77
2022/06/22 01:25:53;;;;;;;12.80;5.70;;;;;;;21.43;70.45;94261.81;5090566;28;20321;-75
2022/06/22 01:28:21;;;;;;;8.02;6.10;;;;;;;;;;5093489;28;20186;-76
2022/06/22 01:30:53;;;;;;;7.38;5.32;;;;;;;21.52;70.15;94258.59;5093116;28;20202;-77
2022/06/22 01:33:27;;;;;;;10.65;5.70;;;;;;;21.52;70.27;94248.34;5093061;28;20451;-74
2022/06/22 01:35:58;;;;;;;9.30;4.65;;;;;;;21.68;69.45;94247.03;5093492;28;20219;-73
2022/06/22 01:38:27;;;;;;;8.20;6.10;;;;;;;21.61;69.70;94245.91;5093040;28;20210;-75
2022/06/22 01:41:04;;;;;;;11.45;7.63;;;;;;;21.60;69.98;94238.81;5092932;28;20225;-71
2022/06/22 01:43:37;;;;;;;13.85;5.93;;;;;;;21.60;69.96;94243.53;5091811;28;20225;-74
2022/06/22 01:46:12;;;;;;;9.13;5.65;;;;;;;21.56;70.20;94237.31;5092674;28;20197;-74
2022/06/22 01:48:44;;;;;;;13.02;5.90;;;;;;;21.51;70.36;94234.97;5092723;28;20217;-78
2022/06/22 01:51:33;;;;;;;9.73;6.10;;;;;;;21.43;70.67;94227.97;5092481;28;20618;-78
2022/06/22 01:54:05;;;;;;;14.10;8.65;;;;;;;21.43;70.54;94233.47;5092725;28;20300;-77
2022/06/22 01:56:39;;;;;;;12.90;8.27;;;;;;;21.36;71.00;94228.78;5092704;28;20193;-78
2022/06/22 01:59:17;;;;;;;13.60;8.07;;;;;;;21.30;71.24;94235.94;5092533;28;20218;-74
2022/06/22 02:01:51;;;;;;;11.65;5.78;;;;;;;21.23;71.40;94236.75;5092357;28;20696;-77
2022/06/22 02:04:26;;;;;;;9.65;6.50;;;;;;;21.24;71.59;94238.34;5092258;28;20268;-76
2022/06/22 02:10:10;;;;;;;10.15;6.32;;;;;;;21.10;71.96;94227.38;5092217;28;20271;-76
2022/06/22 02:12:45;;;;;;;9.15;5.93;;;;;;;21.03;72.35;94238.47;5092244;28;20218;-76
2022/06/22 02:15:23;;;;;;;10.93;5.93;;;;;;;20.96;72.48;94233.00;5091827;28;20197;-77
2022/06/22 02:17:52;;;;;;;9.75;6.43;;;;;;;20.92;72.58;94237.72;5092533;28;20224;-78
2022/06/22 02:20:33;;;;;;;13.07;8.73;;;;;;;20.83;73.10;94240.16;5092176;28;20225;-78
2022/06/22 02:23:08;;;;;;;8.80;6.00;;;;;;;20.74;73.10;94228.81;5093358;28;20275;-78
2022/06/22 02:25:42;;;;;;;9.05;6.30;;;;;;;20.71;73.84;94232.34;5092272;28;20225;-78
2022/06/22 02:28:09;;;;;;;11.20;6.70;;;;;;;20.66;73.72;94230.00;5092485;28;20603;-78
2022/06/22 02:30:39;;;;;;;11.95;7.43;;;;;;;20.62;74.26;94240.28;5092035;28;20209;-78
2022/06/22 02:33:08;;;;;;;10.70;8.70;;;;;;;20.53;74.80;94227.72;5092329;28;20234;-78
2022/06/22 02:35:38;;;;;;;13.77;8.38;;;;;;;20.41;75.35;94246.66;5091738;28;20230;-78
2022/06/22 02:38:09;;;;;;;10.80;8.38;;;;;;;20.30;75.37;94243.91;5091866;28;20202;-76
2022/06/22 02:46:14;;;;;;;9.43;6.25;;;;;;;20.07;76.51;94238.91;5071133;28;20194;-79
2022/06/22 02:48:42;;;;;;;14.15;9.25;;;;;;;20.09;76.80;94231.00;5071407;28;20714;-79
2022/06/22 02:51:17;;;;;;;11.25;6.55;;;;;;;20.11;76.69;94233.34;5071622;28;20210;-78
2022/06/22 02:53:45;;;;;;;9.02;6.55;;;;;;;20.14;76.55;94227.06;5071572;28;20223;-78
2022/06/22 02:56:18;;;;;;;9.43;6.85;;;;;;;20.16;76.14;94225.50;5076731;28;20673;-78
2022/06/22 02:58:45;;;;;;;15.07;9.35;;;;;;;20.31;75.72;94231.72;5091423;28;20570;-78
2022/06/22 03:01:17;;;;;;;13.10;9.23;;;;;;;20.42;75.55;94243.50;5091393;28;20654;-77
2022/06/22 03:03:51;;;;;;;12.90;7.15;;;;;;;20.46;75.27;94249.78;5091734;28;20222;-78
2022/06/22 03:06:21;;;;;;;10.70;6.43;;;;;;;20.56;74.89;94248.16;5091264;28;20229;-78
2022/06/22 03:08:50;;;;;;;11.45;6.75;;;;;;;20.62;74.93;94246.56;5091864;28;20299;-78
2022/06/22 03:11:18;;;;;;;9.73;6.68;;;;;;;20.72;74.32;94248.47;5091700;28;20271;-78
2022/06/22 03:13:49;;;;;;;11.13;6.90;;;;;;;20.90;73.81;94242.88;5090959;28;20198;-74
2022/06/22 03:16:26;;;;;;;11.60;6.85;;;;;;;20.98;73.72;94238.09;5091499;28;20229;-78
2022/06/22 03:18:54;;;;;;;15.88;7.40;;;;;;;21.12;73.20;94252.56;5091252;28;20218;-79
2022/06/22 03:21:22;;;;;;;13.82;9.15;;;;;;;21.35;72.63;94234.72;5091170;28;20234;-78
2022/06/22 03:23:52;;;;;;;9.52;6.75;;;;;;;21.63;71.22;94242.75;5091190;28;20255;-78
2022/06/22 03:26:22;;;;;;;13.35;9.20;;;;;;;22.09;69.94;94236.03;5091683;28;20193;-78
2022/06/22 03:28:52;;;;;;;12.80;8.68;;;;;;;22.76;67.32;94234.44;5091625;28;20545;-78
2022/06/22 03:31:24;;;;;;;15.25;6.47;;;;;;;22.61;67.51;94229.09;5091115;28;20226;-78
2022/06/22 03:33:58;;;;;;;10.63;6.68;;;;;;;23.28;65.70;94223.84;5091347;28;20206;-78
2022/06/22 03:36:32;;;;;;;8.73;6.78;;;;;;;24.18;64.01;94216.38;5091456;28;20550;-78
2022/06/22 03:39:05;;;;;;;10.75;8.75;;;;;;;25.02;60.51;94217.84;5091404;28;20222;-78
2022/06/22 03:41:36;;;;;;;9.65;7.00;;;;;;;25.66;59.04;94216.38;5091415;28;20234;-78
2022/06/22 03:44:09;;;;;;;11.80;8.55;;;;;;;26.04;57.62;94214.59;5090959;28;20187;-78
2022/06/22 03:46:43;;;;;;;14.77;8.63;;;;;;;26.49;56.35;94216.59;5091267;28;20218;-77
2022/06/22 03:49:15;;;;;;;11.57;8.25;;;;;;;26.48;56.11;94220.56;5091211;28;20275;-78
2022/06/22 03:51:48;;;;;;;15.65;8.93;;;;;;;25.80;57.74;94222.34;5091089;28;20735;-78
2022/06/22 03:54:20;;;;;;;10.90;8.35;;;;;;;25.44;58.17;94216.84;5091488;28;20213;-78
2022/06/22 03:56:53;;;;;;;14.30;9.30;;;;;;;24.29;61.51;94239.13;5091385;28;20267;-77
2022/06/22 03:59:20;;;;;;;11.70;8.90;;;;;;;23.70;63.48;94241.75;5091292;28;20287;-76
2022/06/22 04:01:48;;;;;;;11.45;9.10;;;;;;;22.78;66.21;94246.66;5090992;28;20234;-74
2022/06/22 04:04:15;;;;;;;13.77;8.70;;;;;;;22.47;67.45;94254.13;5091087;28;20222;-75
2022/06/22 04:06:47;;;;;;;12.20;9.05;;;;;;;22.91;66.73;94247.66;5093263;28;20955;-74
2022/06/22 04:09:18;;;;;;;14.68;9.63;;;;;;;23.61;64.47;94247.84;5094244;28;20190;-75
2022/06/22 04:11:51;;;;;;;14.10;8.52;;;;;;;23.65;64.36;94253.28;5094466;28;20198;-78
2022/06/22 04:14:23;;;;;;;12.73;8.40;;;;;;;24.66;62.16;94249.06;5094445;28;20448;-77
2022/06/22 04:16:55;;;;;;;13.07;8.35;;;;;;;24.94;60.68;94239.41;5094586;28;20707;-76
2022/06/22 04:19:26;;;;;;;10.65;8.00;;;;;;;25.47;59.24;94243.75;5094305;28;20767;-76
2022/06/22 04:21:58;;;;;;;13.10;8.20;;;;;;;26.22;56.92;94232.78;5094628;28;20213;-75
2022/06/22 04:24:30;;;;;;;12.05;8.68;;;;;;;26.07;57.28;94230.38;5094473;28;20287;-77
2022/06/22 04:27:05;;;;;;;13.68;8.45;;;;;;;26.92;54.85;94222.44;5094901;28;20194;-78
2022/06/22 04:29:39;;;;;;;10.00;8.52;;;;;;;26.75;55.23;94223.75;5094791;28;20186;-79
2022/06/22 04:32:17;;;;;;;12.70;7.97;;;;;;;27.20;54.71;94225.63;5094459;28;20571;-78
2022/06/22 04:34:50;;;;;;;11.25;7.95;;;;;;;27.24;53.24;94226.28;5094644;28;20281;-78
2022/06/22 04:37:31;;;;;;;10.40;8.00;;;;;;;26.54;55.55;94235.47;5093673;28;20226;-79
2022/06/22 04:40:12;;;;;;;13.85;8.07;;;;;;;28.32;51.33;94230.72;5093708;28;20218;-78
2022/06/22 04:42:39;;;;;;;10.60;7.90;;;;;;;28.27;50.95;94234.88;5094256;28;20318;-77
2022/06/22 04:45:07;;;;;;;11.05;7.88;;;;;;;27.53;52.80;94237.31;5093682;28;20611;-74
2022/06/22 04:47:36;;;;;;;10.68;7.78;;;;;;;26.85;54.61;94242.13;5094002;28;20223;-79
2022/06/22 04:50:07;;;;;;;14.70;8.52;;;;;;;27.34;53.80;94249.44;5093833;28;20338;-77
2022/06/22 04:52:42;;;;;;;10.25;8.15;;;;;;;28.88;50.38;94238.28;5094124;28;20275;-79
2022/06/22 04:55:15;;;;;;;11.05;8.68;;;;;;;27.94;52.35;94244.75;5093733;28;20652;-79
2022/06/22 04:57:45;;;;;;;13.00;8.30;;;;;;;28.20;51.43;94245.47;5094001;28;20199;-79
2022/06/22 05:00:17;;;;;;;11.32;8.32;;;;;;;28.30;51.24;94244.31;5094039;28;20802;-74
2022/06/22 05:02:47;;;;;;;11.57;8.43;;;;;;;27.97;52.30;94249.41;5093474;28;20607;-74
2022/06/22 05:05:20;;;;;;;13.57;8.30;;;;;;;27.43;53.25;94261.47;5093699;28;20295;-73
2022/06/22 05:07:52;;;;;;;10.25;7.50;;;;;;;27.54;53.33;94261.91;5093334;28;20604;-80
2022/06/22 05:10:28;;;;;;;9.85;7.53;;;;;;;28.00;51.75;94259.66;5093217;28;20608;-80
2022/06/22 05:12:58;;;;;;;9.00;7.50;;;;;;;27.53;53.26;94265.91;5093636;28;20315;-70
2022/06/22 05:15:29;;;;;;;11.05;7.72;;;;;;;28.12;52.48;94261.66;5093546;28;20287;-77
2022/06/22 05:18:01;;;;;;;10.20;8.00;;;;;;;28.65;50.61;94264.59;5091835;28;20352;-77
2022/06/22 05:20:34;;;;;;;12.95;7.50;;;;;;;27.94;52.25;94262.22;5093259;28;20273;-75
2022/06/22 05:23:03;;;;;;;12.65;7.43;;;;;;;28.45;50.82;94267.69;5093305;28;20658;-76
2022/06/22 05:25:31;;;;;;;11.82;7.35;;;;;;;29.32;48.95;94261.34;5092655;28;20238;-77
2022/06/22 05:28:04;;;;;;;8.82;7.22;;;;;;;29.78;48.01;94258.78;5092436;28;20651;-78
2022/06/22 05:30:36;;;;;;;8.98;7.25;;;;;;;29.68;47.78;94255.94;5093357;28;20218;-74
2022/06/22 05:33:09;;;;;;;11.00;7.15;;;;;;;31.03;45.57;94250.19;5093458;28;20222;-78
2022/06/22 05:35:39;;;;;;;14.38;8.43;;;;;;;31.18;44.32;94243.97;5093005;28;20230;-77
2022/06/22 05:38:09;;;;;;;9.75;7.53;;;;;;;30.26;47.03;94243.22;5092384;28;20813;-78
2022/06/22 05:40:38;;;;;;;9.68;6.95;;;;;;;29.74;47.68;94252.53;5093146;28;20206;-78
2022/06/22 05:43:07;;;;;;;12.02;7.53;;;;;;;30.22;46.36;94246.16;5092376;28;20226;-78
2022/06/22 05:45:39;;;;;;;8.48;7.45;;;;;;;31.26;45.04;94245.22;5093808;28;20314;-78
2022/06/22 05:48:14;;;;;;;10.05;7.53;;;;;;;29.65;48.19;94256.88;5093186;28;20229;-74
2022/06/22 05:50:47;;;;;;;11.75;8.07;;;;;;;30.12;46.63;94264.16;5092756;28;20247;-78
2022/06/22 05:53:18;;;;;;;8.48;7.03;;;;;;;29.31;48.66;94273.72;5092933;28;20218;-74
2022/06/22 05:55:50;;;;;;;13.02;7.93;;;;;;;29.18;49.31;94279.41;5092489;28;20216;-76
2022/06/22 05:58:24;;;;;;;11.60;7.82;;;;;;;29.42;49.28;94282.50;5092777;28;20226;-76
2022/06/22 06:00:54;;;;;;;14.98;9.18;;;;;;;28.68;49.99;94283.22;5092517;28;20217;-76
2022/06/22 06:03:36;;;;;;;14.02;8.30;;;;;;;29.00;49.58;94271.69;5092768;28;20226;-78
2022/06/22 06:06:08;;;;;;;12.23;8.43;;;;;;;28.78;49.63;94279.25;5092451;28;20186;-76
2022/06/22 06:08:42;;;;;;;13.48;8.60;;;;;;;28.66;50.25;94274.53;5092429;28;20619;-76
2022/06/22 06:11:15;;;;;;;15.32;8.48;;;;;;;27.79;52.83;94279.84;5091759;28;20229;-75
2022/06/22 06:13:46;;;;;;;15.57;8.27;;;;;;;26.82;55.01;94273.56;5092052;28;20201;-77
2022/06/22 06:16:18;;;;;;;12.55;8.00;;;;;;;26.66;55.99;94270.84;5092080;28;20272;-75
2022/06/22 06:18:48;;;;;;;11.02;8.65;;;;;;;27.15;55.13;94276.25;5092135;28;20228;-79
2022/06/22 06:21:18;;;;;;;12.93;8.20;;;;;;;27.68;54.00;94277.41;5091522;28;20580;-72
2022/06/22 06:23:50;;;;;;;10.73;8.10;;;;;;;28.42;52.51;94270.63;5091626;28;20271;-79
2022/06/22 06:29:17;;;;;;;16.05;8.25;;;;;;;28.27;52.77;94271.09;5091770;28;20198;-77
2022/06/22 06:31:57;;;;;;;11.93;8.55;;;;;;;28.53;52.38;94262.66;5091914;28;20187;-74
2022/06/22 06:34:34;;;;;;;13.30;8.43;;;;;;;28.70;52.50;94264.00;5092349;28;20229;-78
2022/06/22 06:37:07;;;;;;;12.02;8.43;;;;;;;28.77;52.02;94260.19;5091731;28;20635;-78
2022/06/22 06:39:38;;;;;;;11.10;8.80;;;;;;;29.69;49.97;94263.06;5092073;28;20202;-80
2022/06/22 06:42:13;;;;;;;14.23;8.60;;;;;;;29.57;50.02;94258.38;5091855;28;20230;-73
2022/06/22 06:44:43;;;;;;;10.82;8.93;;;;;;;29.94;49.04;94255.69;5091338;28;20700;-76
2022/06/22 06:47:15;;;;;;;15.20;8.80;;;;;;;30.15;48.85;94254.84;5091635;28;20226;-78
2022/06/22 06:49:49;;;;;;;14.63;9.90;;;;;;;31.11;46.44;94245.09;5091461;28;20236;-78
2022/06/22 06:52:26;;;;;;;16.77;9.13;;;;;;;31.73;44.96;94245.38;5091226;28;20287;-77
2022/06/22 06:55:00;;;;;;;13.90;9.15;;;;;;;32.34;43.20;94248.78;5091545;28;20288;-79
2022/06/22 06:57:31;;;;;;;13.60;9.82;;;;;;;31.69;45.18;94244.78;5091487;28;20757;-79
2022/06/22 07:00:02;;;;;;;14.75;10.30;;;;;;;30.56;47.13;94239.53;5091646;28;20627;-78
2022/06/22 07:02:32;;;;;;;12.13;10.05;;;;;;;31.64;45.08;94242.63;5091684;28;20226;-76
2022/06/22 07:05:02;;;;;;;14.25;9.18;;;;;;;32.31;44.92;94244.13;5091685;28;20194;-79
2022/06/22 07:07:37;;;;;;;12.80;9.52;;;;;;;33.24;42.72;94234.47;5091607;28;20224;-79
2022/06/22 07:10:10;;;;;;;11.30;9.57;;;;;;;32.12;43.77;94232.22;5091771;28;20186;-79
2022/06/22 07:12:44;;;;;;;16.02;9.70;;;;;;;31.54;45.79;94238.28;5091659;28;20191;-79
2022/06/22 07:15:18;;;;;;;15.13;10.30;;;;;;;30.43;47.13;94238.09;5091258;28;20574;-80
2022/06/22 07:17:47;;;;;;;15.85;10.10;;;;;;;31.96;45.32;94240.28;5091672;28;20206;-80
2022/06/22 07:20:22;;;;;;;12.48;9.82;;;;;;;32.79;43.32;94232.88;5091846;28;20206;-78
2022/06/22 07:22:59;;;;;;;17.67;10.27;;;;;;;33.19;40.63;94235.13;5090632;28;20694;-78
2022/06/22 07:25:33;;;;;;;14.10;9.50;;;;;;;31.46;44.34;94239.84;5091171;28;20735;-71
2022/06/22 07:28:05;;;;;;;12.18;10.57;;;;;;;30.67;46.25;94244.66;5091471;28;20222;-77
2022/06/22 07:30:36;;;;;;;10.63;9.40;;;;;;;31.04;47.03;94234.97;5091666;28;20190;-77
2022/06/22 07:33:10;;;;;;;13.43;9.93;;;;;;;29.61;49.60;94245.06;5090929;28;20720;-75
2022/06/22 07:35:43;;;;;;;14.20;9.63;;;;;;;29.77;50.43;94252.41;5091282;28;20771;-76
2022/06/22 07:38:22;;;;;;;17.80;11.43;;;;;;;28.47;52.47;94242.94;5091325;28;20214;-78
2022/06/22 07:43:34;;;;;;;16.42;11.82;;;;;;;29.52;50.26;94235.88;5095526;28;20220;-73
2022/06/22 07:46:02;;;;;;;22.55;14.23;;;;;;;29.48;50.58;94240.81;5094982;28;20573;-80
2022/06/22 07:48:34;;;;;;;19.83;14.25;;;;;;;29.04;51.57;94240.88;5095282;28;20325;-77
2022/06/22 07:51:08;;;;;;;20.77;15.50;;;;;;;28.68;52.59;94244.19;5095629;28;20225;-79
2022/06/22 07:53:44;;;;;;;22.50;15.75;;;;;;;28.26;52.38;94250.03;5094300;28;20230;-71
2022/06/22 07:56:16;;;;;;;20.35;14.48;;;;;;;28.96;50.88;94251.53;5094594;28;20289;-75
2022/06/22 07:58:47;;;;;;;21.40;15.07;;;;;;;28.76;52.38;94242.69;5095144;28;20229;-75
2022/06/22 08:01:18;;;;;;;23.55;13.73;;;;;;;28.61;52.30;94258.38;5094887;28;20264;-78
2022/06/22 08:03:50;;;;;;;19.85;13.77;;;;;;;28.36;53.45;94247.31;5094452;28;20647;-77
2022/06/22 08:06:22;;;;;;;17.92;12.43;;;;;;;28.41;53.28;94252.34;5094352;28;20222;-74
2022/06/22 08:08:55;;;;;;;18.75;12.93;;;;;;;28.40;53.52;94253.56;5094146;28;20266;-69
2022/06/22 08:11:26;;;;;;;19.77;13.48;;;;;;;28.22;52.92;94254.94;5094602;28;20291;-71
2022/06/22 08:13:57;;;;;;;17.70;12.45;;;;;;;28.46;52.39;94257.31;5094490;28;20313;-71
2022/06/22 08:16:27;;;;;;;23.38;14.60;;;;;;;28.67;51.48;94264.94;5094054;28;20623;-78
2022/06/22 08:18:55;;;;;;;16.48;13.45;;;;;;;28.55;52.59;94260.97;5094838;28;20240;-75
2022/06/22 08:21:24;;;;;;;19.10;13.60;;;;;;;28.69;52.28;94254.13;5094263;28;20295;-74
2022/06/22 08:23:54;;;;;;;18.67;12.90;;;;;;;29.41;50.68;94258.59;5093351;28;20237;-74
2022/06/22 08:26:25;;;;;;;13.48;9.80;;;;;;;28.87;50.25;94253.47;5094577;28;20230;-72
2022/06/22 08:28:53;;;;;;;18.73;12.82;;;;;;;29.45;49.54;94252.91;5094430;28;20186;-79
2022/06/22 08:31:20;;;;;;;18.27;11.32;;;;;;;29.08;50.50;94258.28;5094367;28;20692;-70
2022/06/22 08:33:56;;;;;;;14.82;11.65;;;;;;;28.43;51.93;94247.09;5094177;28;20716;-71
2022/06/22 08:36:30;;;;;;;17.85;11.18;;;;;;;28.52;50.73;94252.72;5094479;28;20812;-77
2022/06/22 08:39:02;;;;;;;15.80;11.32;;;;;;;28.62;51.80;94248.78;5094585;28;20310;-77
2022/06/22 08:41:43;;;;;;;15.98;10.60;;;;;;;28.37;51.69;94260.03;5094538;28;20222;-74
2022/06/22 08:44:22;;;;;;;19.65;10.85;;;;;;;28.13;51.59;94246.50;5094280;28;20600;-78
2022/06/22 08:47:15;;;;;;;13.50;9.73;;;;;;;28.28;51.26;94258.75;5094040;28;20187;-75
2022/06/22 08:50:19;;;;;;;19.08;11.70;;;;;;;28.29;51.05;94248.38;5093766;28;20226;-70
2022/06/22 08:53:02;;;;;;;15.48;10.35;;;;;;;28.51;50.54;94248.38;5093686;28;20265;-73
2022/06/22 08:55:53;;;;;;;13.48;10.27;;;;;;;28.33;51.13;94253.81;5093696;28;20201;-78
2022/06/22 08:58:37;;;;;;;14.57;9.52;;;;;;;28.25;50.60;94233.78;5072026;28;20723;-73
2022/06/22 09:01:14;;;;;;;14.43;9.45;;;;;;;28.40;48.98;94240.41;5073701;28;20183;-78
2022/06/22 09:03:59;;;;;;;11.85;6.57;;;;;;;28.01;48.56;94241.75;5073475;28;20230;-70
2022/06/22 09:06:48;;;;;;;10.18;7.45;;;;;;;27.95;49.51;94233.16;5073449;28;20775;-74
2022/06/22 09:09:57;;;;;;;12.65;8.52;;;;;;;28.19;49.40;94219.63;5073538;28;20248;-79
2022/06/22 09:12:34;;;;;;;11.02;8.73;;;;;;;28.53;50.48;94220.84;5073335;28;20279;-74
2022/06/22 09:15:15;;;;;;;15.32;9.52;;;;;;;28.85;50.08;94223.25;5073333;28;20474;-78
2022/06/22 09:18:02;;;;;;;16.48;10.15;;;;;;;28.97;49.87;94222.38;5073748;28;20198;-77
2022/06/22 09:20:41;;;;;;;14.43;9.02;;;;;;;28.98;48.87;94221.16;5073480;28;20264;-77
2022/06/22 09:23:19;;;;;;;15.65;9.50;;;;;;;29.33;49.62;94223.81;5073445;28;20284;-79
2022/06/22 09:25:56;;;;;;;13.18;8.52;;;;;;;29.44;48.56;94224.19;5072384;28;20858;-76
2022/06/22 09:28:27;;;;;;;8.82;6.45;;;;;;;29.15;48.71;94224.50;5073218;28;20194;-71
2022/06/22 09:31:24;;;;;;;14.70;7.78;;;;;;;29.57;46.04;94213.72;5073416;28;20250;-78
2022/06/22 09:34:08;;;;;;;11.35;7.72;;;;;;;29.24;46.07;94205.03;5073105;28;20256;-78
2022/06/22 09:36:57;;;;;;;14.27;7.95;;;;;;;29.43;47.06;94200.31;5072964;28;20778;-79
2022/06/22 09:39:46;;;;;;;12.02;6.80;;;;;;;29.13;47.86;94193.50;5072700;28;20219;-71
2022/06/22 09:42:40;;;;;;;11.13;8.57;;;;;;;29.88;46.34;94199.69;5072564;28;20713;-77
2022/06/22 09:45:21;;;;;;;11.23;7.90;;;;;;;29.95;45.88;94196.56;5085222;28;20231;-77
2022/06/22 09:48:09;;;;;;;12.00;7.97;;;;;;;28.97;47.41;94197.28;5092747;28;20226;-78
2022/06/22 09:51:00;;;;;;;11.88;7.40;;;;;;;28.58;48.15;94197.94;5092435;28;20218;-78
2022/06/22 09:53:41;;;;;;;13.50;8.10;;;;;;;29.11;47.80;94204.31;5092558;28;20186;-81
2022/06/22 09:56:27;;;;;;;12.25;7.43;;;;;;;28.92;47.54;94203.47;5091404;28;20766;-75
2022/06/22 09:59:29;;;;;;;15.27;8.27;;;;;;;28.78;47.26;94195.59;5092922;28;20712;-80
2022/06/22 10:02:06;;;;;;;13.00;7.90;;;;;;;28.96;47.53;94206.91;5092928;28;20222;-78
2022/06/22 10:05:04;;;;;;;9.25;7.32;;;;;;;29.65;47.60;94201.03;5091459;28;20268;-77
2022/06/22 10:07:49;;;;;;;14.30;7.68;;;;;;;29.67;46.39;94201.31;5091792;28;20202;-77
2022/06/22 10:10:28;;;;;;;11.88;7.63;;;;;;;29.65;46.93;94217.78;5092247;28;20272;-78
2022/06/22 10:13:29;;;;;;;11.57;7.55;;;;;;;29.42;47.71;94223.88;5092417;28;20194;-76
2022/06/22 10:16:30;;;;;;;10.32;6.75;;;;;;;28.94;48.84;94214.94;5092613;28;20558;-76
2022/06/22 10:19:15;;;;;;;10.85;7.43;;;;;;;29.30;48.13;94230.31;5092570;28;20251;-77
2022/06/22 10:21:55;;;;;;;11.88;7.47;;;;;;;29.40;47.18;94226.34;5091211;28;20629;-74
2022/06/22 10:24:40;;;;;;;12.73;6.90;;;;;;;29.70;48.42;94219.94;5091649;28;20745;-77
2022/06/22 10:27:33;;;;;;;12.50;7.72;;;;;;;29.96;49.14;94233.66;5091267;28;20226;-77
2022/06/22 10:30:19;;;;;;;12.02;7.18;;;;;;;28.99;48.78;94233.88;5092214;28;20358;-76
2022/06/22 10:33:05;;;;;;;7.93;5.95;;;;;;;28.62;50.13;94215.31;5091692;28;20252;-71
2022/06/22 10:36:02;;;;;;;10.85;7.45;;;;;;;28.42;50.06;94229.59;5092040;28;20274;-76
2022/06/22 10:38:47;;;;;;;9.95;8.45;;;;;;;28.12;51.43;94250.50;5091883;28;20222;-70
2022/06/22 10:47:31;;;;;;;13.93;7.78;;;;;;;27.61;52.21;94221.97;5091940;28;20206;-77
2022/06/22 10:50:11;;;;;;;13.75;9.00;;;;;;;28.16;51.73;94211.34;5091948;28;20218;-78
2022/06/22 10:52:59;;;;;;;11.20;7.90;;;;;;;28.13;51.10;94218.63;5091192;28;20686;-71
2022/06/22 10:55:41;;;;;;;11.32;7.93;;;;;;;28.93;51.68;94218.19;5091445;28;20222;-78
2022/06/22 10:58:29;;;;;;;11.35;6.97;;;;;;;28.74;49.35;94222.84;5070902;28;20191;-77
2022/06/22 11:01:23;;;;;;;9.70;7.30;;;;;;;28.58;50.65;94234.19;5071531;28;20203;-76
2022/06/22 11:04:28;;;;;;;9.57;7.13;;;;;;;28.33;51.24;94209.22;5071196;28;20715;-72
2022/06/22 11:07:35;;;;;;;16.08;8.07;;;;;;;28.28;51.86;94216.94;5071538;28;20227;-76
2022/06/22 11:10:26;;;;;;;10.27;7.45;;;;;;;28.94;51.49;94220.53;5071588;28;20187;-77
2022/06/22 11:13:22;;;;;;;12.43;8.10;;;;;;;29.14;50.91;94213.78;5071318;28;20711;-77
2022/06/22 11:16:12;;;;;;;10.88;8.40;;;;;;;29.14;51.75;94208.22;5071165;28;20691;-72
2022/06/22 11:18:57;;;;;;;12.20;7.95;;;;;;;29.64;50.82;94221.03;5071552;28;20195;-76
2022/06/22 11:21:42;;;;;;;10.95;8.45;;;;;;;28.53;52.63;94215.28;5071365;28;20768;-74
2022/06/22 11:24:45;;;;;;;10.70;6.88;;;;;;;28.28;53.35;94230.88;5070721;28;20292;-73
2022/06/22 11:33:39;;;;;;;9.70;7.68;;;;;;;27.98;51.99;94228.69;5063285;28;20249;-78
2022/06/22 11:36:23;;;;;;;14.20;7.90;;;;;;;27.64;55.56;94239.78;5071126;28;20223;-73
2022/06/22 11:39:06;;;;;;;16.50;8.98;;;;;;;27.24;58.08;94234.63;5071212;28;20219;-80
2022/06/22 11:41:56;;;;;;;11.77;7.78;;;;;;;27.16;57.26;94230.53;5071182;28;20221;-77
2022/06/22 11:47:59;;;;;;;14.88;8.30;;;;;;;27.88;56.20;94227.06;5091054;28;20222;-75
2022/06/22 11:50:35;;;;;;;13.25;8.43;;;;;;;28.23;53.92;94223.06;5091558;28;20804;-76
2022/06/22 11:53:16;;;;;;;15.38;8.75;;;;;;;28.25;54.03;94215.06;5091263;28;20225;-77
2022/06/22 11:55:48;;;;;;;14.32;8.82;;;;;;;28.82;52.93;94207.44;5090139;28;20218;-78
2022/06/22 11:58:38;;;;;;;14.55;8.82;;;;;;;29.02;52.66;94209.88;5091180;28;20215;-79
2022/06/22 12:01:44;;;;;;;10.25;8.27;;;;;;;29.29;52.59;94217.59;5090581;28;20219;-76
2022/06/22 12:04:46;;;;;;;14.07;8.02;;;;;;;28.94;52.01;94214.94;5081795;28;20665;-75
2022/06/22 12:07:41;;;;;;;12.48;8.55;;;;;;;29.23;50.83;94213.88;5090913;28;20214;-77
2022/06/22 12:10:28;;;;;;;14.38;8.95;;;;;;;29.83;50.32;94227.44;5089577;28;20241;-78
2022/06/22 12:13:10;;;;;;;11.77;8.32;;;;;;;30.23;48.51;94219.75;5090956;28;20711;-78
2022/06/22 12:15:53;;;;;;;12.32;8.40;;;;;;;29.92;49.97;94225.44;5091002;28;20246;-73
2022/06/22 12:18:33;;;;;;;13.77;8.10;;;;;;;29.26;49.93;94218.50;5091442;28;20215;-77
2022/06/22 12:21:27;;;;;;;13.30;8.65;;;;;;;29.22;50.74;94209.50;5091114;28;20275;-75
2022/06/22 12:24:07;;;;;;;19.90;9.35;;;;;;;29.40;50.25;94206.81;5090437;28;20292;-73
2022/06/22 12:26:48;;;;;;;11.65;8.68;;;;;;;28.46;51.12;94219.06;5091161;28;20553;-71
2022/06/22 12:29:29;;;;;;;11.10;7.68;;;;;;;28.64;50.63;94224.03;5094699;28;20279;-74
2022/06/22 12:32:02;;;;;;;11.30;8.40;;;;;;;28.50;51.72;94224.53;5093589;28;20704;-74
2022/06/22 12:34:34;;;;;;;12.00;8.18;;;;;;;28.43;51.68;94219.22;5094543;28;20222;-76
2022/06/22 12:37:07;;;;;;;16.95;8.77;;;;;;;28.55;52.51;94219.16;5094107;28;20673;-76
2022/06/22 12:39:39;;;;;;;11.57;7.95;;;;;;;28.84;51.06;94226.47;5094726;28;20188;-72